Antimony, Utah
Current Conditions -  °F | °C
As of 1:53 PM on Thursday 23 Oct 2014 (Local Time) from KBCE Reporting Station
Clear Clear  
Wind Chill: 16°   Ceiling: Unl
Heat Index: 16°   Visibility: 10mi
Dew Point: -2°   Wind: 14mph
Humidity: 29%   Direction: 140°SE
Pressure: 30.33"   Gusts: NA
Location:  38.12°N, 112°W
Report Text: KBCE 231953Z AUTO 14012KT 10SM CLR 16/M02 A3033 RMK AO2 SLP194 T01611022 TSNO
Loading
Personal Weather Stations






























Interactive Weather Map
Tropical Storm Tracking
New forecast layout! Learn more

10-Day Weather Forecast

Advertisements
Track Severe Weather on mobile